All City Stadium (Denver), Colorado
Current Conditions -  °F | °C
As of 4:53 AM on Monday 24 Nov 2014 (Local Time) from KAPA Reporting Station
Broken Clouds Broken Clouds  
Wind Chill: -5°   Ceiling: 20000
Heat Index: -2°   Visibility: 10mi
Dew Point: -16°   Wind: 5mph
Humidity: 34%   Direction: 250°WSW
Pressure: 29.87"   Gusts: NA
Location:  39.69109°N, 104.9663°W
Report Text: KAPA 241153Z 25004KT 10SM FEW120 BKN200 M02/M16 A2987 RMK AO2 SLP146 70001 T10221161 11017 21050 55002
Loading
Personal Weather Stations






























Interactive Weather Map New forecast layout! Learn more

10-Day Weather Forecast

Advertisements
Track Severe Weather on mobile